createdAt,value
2023-03-24T00:01:53.190Z,71.50
2023-03-24T00:04:20.342Z,71.80
2023-03-24T00:06:49.189Z,71.80
2023-03-24T00:09:16.802Z,71.90
2023-03-24T00:11:43.926Z,72.00
2023-03-24T00:14:14.243Z,71.90
2023-03-24T00:16:46.097Z,72.20
2023-03-24T00:19:14.894Z,72.30
2023-03-24T00:21:42.169Z,72.30
2023-03-24T00:24:11.182Z,72.30
2023-03-24T00:29:08.931Z,72.40
2023-03-24T00:31:40.013Z,72.90
2023-03-24T00:34:08.771Z,73.00
2023-03-24T00:36:36.385Z,73.00
2023-03-24T00:39:06.179Z,73.10
2023-03-24T00:41:33.205Z,72.90
2023-03-24T00:44:03.700Z,73.00
2023-03-24T00:46:30.713Z,73.20
2023-03-24T00:49:07.862Z,73.20
2023-03-24T00:51:37.587Z,73.30
2023-03-24T00:54:05.634Z,73.40
2023-03-24T00:56:33.945Z,73.60
2023-03-24T00:59:02.202Z,73.60
2023-03-24T01:01:33.387Z,73.50
2023-03-24T01:04:01.231Z,74.20
2023-03-24T01:06:27.956Z,73.60
2023-03-24T01:08:54.945Z,73.70
2023-03-24T01:11:24.326Z,73.60
2023-03-24T01:13:52.392Z,73.60
2023-03-24T01:16:19.288Z,73.90
2023-03-24T01:18:47.115Z,73.70
2023-03-24T01:21:14.381Z,73.60
2023-03-24T01:23:42.059Z,74.00
2023-03-24T01:26:10.542Z,73.70
2023-03-24T01:28:41.006Z,73.90
2023-03-24T01:31:10.019Z,74.00
2023-03-24T01:33:37.918Z,74.00
2023-03-24T01:36:07.257Z,74.00
2023-03-24T01:38:34.593Z,74.10
2023-03-24T01:41:01.376Z,74.20
2023-03-24T01:43:33.240Z,74.10
2023-03-24T01:46:21.320Z,73.90
2023-03-24T01:49:01.818Z,74.20
2023-03-24T01:51:34.802Z,74.20
2023-03-24T01:54:22.807Z,74.20
2023-03-24T01:56:55.800Z,74.00
2023-03-24T01:59:28.977Z,73.80
2023-03-24T02:02:03.095Z,74.00
2023-03-24T02:04:38.752Z,74.10
2023-03-24T02:07:13.901Z,74.40
2023-03-24T02:09:40.693Z,74.40
2023-03-24T02:12:07.559Z,74.30
2023-03-24T02:14:35.383Z,74.30
2023-03-24T02:17:18.123Z,74.40
2023-03-24T02:20:29.148Z,74.40
2023-03-24T02:23:32.203Z,74.60
2023-03-24T02:26:07.743Z,74.50
2023-03-24T02:29:04.921Z,74.90
2023-03-24T02:31:52.553Z,75.20
2023-03-24T03:31:51.696Z,74.90
2023-03-24T03:34:42.898Z,66.00
2023-03-24T03:37:13.104Z,65.50
2023-03-24T03:44:42.810Z,65.70
2023-03-24T03:47:09.530Z,65.40
2023-03-24T03:49:36.962Z,65.60
2023-03-24T03:54:32.557Z,65.60
2023-03-24T03:57:00.466Z,66.70
2023-03-24T03:59:36.247Z,65.60
2023-03-24T04:02:16.113Z,65.80
2023-03-24T04:05:05.628Z,66.00
2023-03-24T04:07:58.168Z,66.20
2023-03-24T04:10:34.853Z,66.30
2023-03-24T04:13:20.460Z,66.80
2023-03-24T04:16:05.876Z,67.00
2023-03-24T04:18:59.057Z,66.10
2023-03-24T04:21:51.709Z,65.40
2023-03-24T04:24:18.360Z,65.40
2023-03-24T04:27:09.840Z,65.50
2023-03-24T04:29:46.859Z,65.00
2023-03-24T04:32:26.574Z,65.00
2023-03-24T04:35:01.807Z,65.50
2023-03-24T04:37:33.395Z,65.10
2023-03-24T04:40:06.014Z,64.90
2023-03-24T04:42:53.752Z,64.70
2023-03-24T04:45:25.542Z,65.10
2023-03-24T04:47:58.745Z,65.40
2023-03-24T04:50:31.509Z,65.30
2023-03-24T04:52:59.126Z,65.30
2023-03-24T04:55:44.627Z,65.20
2023-03-24T04:58:11.728Z,66.00
2023-03-24T05:00:38.416Z,65.40
2023-03-24T05:03:05.431Z,65.20
2023-03-24T05:05:32.203Z,65.20
2023-03-24T05:08:00.189Z,65.40
2023-03-24T05:10:26.921Z,65.50
2023-03-24T05:12:54.354Z,65.30
2023-03-24T05:15:21.338Z,65.20
2023-03-24T05:17:48.103Z,65.20
2023-03-24T05:20:15.595Z,65.20
2023-03-24T05:22:42.408Z,65.00
2023-03-24T05:25:09.729Z,65.10
2023-03-24T05:27:37.135Z,65.20
2023-03-24T05:30:06.443Z,65.20
2023-03-24T05:32:33.237Z,65.20
2023-03-24T05:35:00.347Z,65.00
2023-03-24T05:37:27.514Z,64.40
2023-03-24T05:39:55.946Z,64.50
2023-03-24T05:42:23.549Z,64.80
2023-03-24T05:44:50.475Z,64.90
2023-03-24T05:47:20.018Z,64.50
2023-03-24T05:54:49.382Z,64.40
2023-03-24T05:57:16.623Z,64.80
2023-03-24T05:59:43.452Z,65.10
2023-03-24T06:02:10.475Z,65.80
2023-03-24T06:04:38.165Z,65.60
2023-03-24T06:07:05.239Z,65.40
2023-03-24T06:14:33.761Z,65.50
2023-03-24T06:22:00.541Z,65.90
2023-03-24T06:24:27.527Z,66.30
2023-03-24T06:27:02.093Z,66.50
2023-03-24T06:29:30.740Z,66.40
2023-03-24T06:31:57.655Z,66.60
2023-03-24T06:36:56.564Z,66.60
2023-03-24T06:39:23.985Z,67.10
2023-03-24T06:41:50.898Z,67.00
2023-03-24T06:44:20.277Z,67.00
2023-03-24T06:46:47.353Z,66.90
2023-03-24T06:49:14.074Z,67.10
2023-03-24T06:51:40.736Z,66.70
2023-03-24T06:54:07.514Z,66.80
2023-03-24T06:56:34.872Z,66.70
2023-03-24T06:59:02.016Z,66.60
2023-03-24T07:01:29.688Z,66.30
2023-03-24T07:03:56.917Z,65.80
2023-03-24T07:06:23.645Z,66.10
2023-03-24T07:08:50.704Z,65.90
2023-03-24T07:11:19.481Z,66.20
2023-03-24T07:13:46.152Z,66.20
2023-03-24T07:16:12.991Z,66.40
2023-03-24T07:18:39.692Z,66.30
2023-03-24T07:21:07.365Z,66.50
2023-03-24T07:23:34.793Z,66.20
2023-03-24T07:26:01.616Z,66.30
2023-03-24T07:28:28.279Z,65.90
2023-03-24T07:30:55.453Z,65.50
2023-03-24T07:33:24.820Z,65.40
2023-03-24T07:35:56.132Z,65.10
2023-03-24T07:38:24.156Z,65.30
2023-03-24T07:40:50.979Z,65.80
2023-03-24T07:43:18.082Z,66.00
2023-03-24T07:45:46.452Z,66.20
2023-03-24T07:48:13.536Z,66.30
2023-03-24T07:50:40.548Z,66.10
2023-03-24T07:53:10.049Z,66.10
2023-03-24T07:55:38.418Z,66.70
2023-03-24T07:58:05.663Z,66.10
2023-03-24T08:00:33.686Z,66.50
2023-03-24T08:03:00.954Z,66.40
2023-03-24T08:05:30.718Z,66.60
2023-03-24T08:07:58.588Z,66.40
2023-03-24T08:10:27.864Z,66.30
2023-03-24T08:12:55.435Z,66.10
2023-03-24T08:15:22.359Z,66.30
2023-03-24T08:17:49.988Z,66.10
2023-03-24T08:20:19.049Z,66.10
2023-03-24T08:22:54.301Z,66.10
2023-03-24T08:25:24.636Z,66.30
2023-03-24T08:27:52.314Z,66.10
2023-03-24T08:30:28.432Z,66.20
2023-03-24T08:33:00.939Z,65.70
2023-03-24T08:35:33.991Z,65.80
2023-03-24T08:38:06.045Z,65.90
2023-03-24T08:40:34.803Z,65.70
2023-03-24T08:43:04.493Z,65.30
2023-03-24T08:45:32.542Z,65.40
2023-03-24T08:48:01.941Z,65.60
2023-03-24T08:50:32.533Z,65.20
2023-03-24T08:52:59.249Z,65.40
2023-03-24T08:55:26.293Z,64.80
2023-03-24T08:57:54.360Z,64.40
2023-03-24T09:00:21.618Z,64.50
2023-03-24T09:02:54.054Z,63.90
2023-03-24T09:05:36.627Z,64.20
2023-03-24T09:08:13.193Z,63.80
2023-03-24T09:10:42.141Z,63.90
2023-03-24T09:15:36.673Z,63.80
2023-03-24T09:18:03.573Z,63.60
2023-03-24T09:20:30.469Z,63.70
2023-03-24T09:22:57.201Z,63.60
2023-03-24T09:25:24.306Z,63.10
2023-03-24T09:27:51.176Z,64.20
2023-03-24T09:30:19.015Z,64.30
2023-03-24T09:32:46.531Z,63.40
2023-03-24T09:35:13.848Z,63.90
2023-03-24T09:37:43.899Z,62.60
2023-03-24T09:40:20.498Z,62.80
2023-03-24T09:42:54.421Z,62.70
2023-03-24T09:45:22.577Z,62.40
2023-03-24T09:47:56.852Z,62.50
2023-03-24T09:50:33.220Z,62.20
2023-03-24T09:53:07.003Z,62.30
2023-03-24T09:55:37.804Z,62.10
2023-03-24T09:58:08.438Z,62.20
2023-03-24T10:29:22.993Z,62.10
2023-03-24T10:31:54.375Z,58.10
2023-03-24T10:34:26.559Z,57.10
2023-03-24T10:36:54.715Z,58.00
2023-03-24T10:39:28.468Z,57.70
2023-03-24T10:42:07.071Z,57.50
2023-03-24T10:47:05.174Z,56.60
2023-03-24T10:49:31.828Z,56.70
2023-03-24T10:52:03.811Z,56.10
2023-03-24T10:54:31.914Z,56.30
2023-03-24T10:56:59.287Z,57.00
2023-03-24T10:59:28.758Z,57.20
2023-03-24T11:02:12.198Z,56.50
2023-03-24T11:04:47.080Z,54.40
2023-03-24T11:07:20.870Z,55.20
2023-03-24T11:09:58.621Z,55.40
2023-03-24T11:12:29.237Z,55.30
2023-03-24T11:15:23.531Z,55.50
2023-03-24T11:17:55.621Z,54.30
2023-03-24T11:20:31.662Z,55.20
2023-03-24T11:23:21.099Z,55.40
2023-03-24T11:26:01.519Z,56.50
2023-03-24T11:28:28.983Z,58.20
2023-03-24T11:30:56.918Z,59.40
2023-03-24T11:33:34.495Z,61.30
2023-03-24T11:36:26.627Z,61.80
2023-03-24T11:39:15.466Z,62.00
2023-03-24T11:41:50.405Z,60.80
2023-03-24T11:44:25.215Z,61.40
2023-03-24T11:46:58.444Z,62.10
2023-03-24T12:02:07.843Z,60.70
2023-03-24T12:05:05.389Z,58.50
2023-03-24T12:07:43.224Z,59.50
2023-03-24T12:10:43.806Z,60.10
2023-03-24T12:13:25.997Z,59.40
2023-03-24T12:16:17.009Z,59.60
2023-03-24T12:18:55.951Z,58.40
2023-03-24T12:21:48.578Z,58.80
2023-03-24T12:24:37.124Z,58.60
2023-03-24T12:27:03.885Z,57.60
2023-03-24T12:29:37.626Z,58.30
2023-03-24T12:32:23.099Z,56.90
2023-03-24T12:35:20.311Z,56.00
2023-03-24T12:38:17.567Z,55.40
2023-03-24T13:12:24.144Z,57.10
2023-03-24T13:15:22.831Z,53.60
2023-03-24T13:17:57.432Z,53.20
2023-03-24T13:20:39.579Z,52.10
2023-03-24T13:23:43.957Z,52.00
2023-03-24T13:26:21.129Z,53.30
2023-03-24T13:28:56.330Z,53.10
2023-03-24T14:07:44.202Z,52.00
2023-03-24T14:10:14.136Z,57.70
2023-03-24T14:12:59.082Z,57.00
2023-03-24T14:15:30.661Z,58.80
2023-03-24T14:18:25.506Z,58.80
2023-03-24T14:21:02.444Z,59.50
2023-03-24T14:23:35.255Z,58.70
2023-03-24T14:26:01.969Z,59.40
2023-03-24T14:28:33.917Z,58.70
2023-03-24T14:31:19.514Z,58.20
2023-03-24T14:34:02.058Z,58.10
2023-03-24T14:36:33.917Z,58.30
2023-03-24T14:39:32.204Z,56.50
2023-03-24T14:41:59.993Z,56.90
2023-03-24T14:44:53.526Z,56.80
2023-03-24T14:47:27.604Z,57.60
2023-03-24T14:49:57.658Z,57.60
2023-03-24T14:52:46.457Z,56.70
2023-03-24T14:55:19.768Z,57.50
2023-03-24T14:58:02.374Z,57.20
2023-03-24T15:00:36.339Z,56.70
2023-03-24T15:03:17.729Z,56.40
2023-03-24T15:05:44.722Z,56.60
2023-03-24T15:08:13.636Z,55.90
2023-03-24T15:11:04.438Z,56.40
2023-03-24T15:13:42.264Z,57.10
2023-03-24T15:16:11.859Z,57.30
2023-03-24T15:21:36.222Z,56.70
2023-03-24T15:24:23.837Z,56.10
2023-03-24T16:51:36.092Z,56.20
2023-03-24T16:54:03.742Z,59.90
2023-03-24T16:56:30.848Z,60.50
2023-03-24T16:58:57.792Z,60.60
2023-03-24T17:01:35.782Z,60.70
2023-03-24T17:04:13.458Z,61.30
2023-03-24T17:06:43.771Z,61.20
2023-03-24T17:09:10.703Z,61.20
2023-03-24T17:11:40.823Z,60.90
2023-03-24T17:14:12.369Z,60.30
2023-03-24T17:16:46.013Z,59.50
2023-03-24T17:19:15.042Z,59.00
2023-03-24T17:21:54.572Z,58.80
2023-03-24T17:24:21.672Z,58.70
2023-03-24T17:26:48.457Z,58.80
2023-03-24T17:29:15.409Z,58.70
2023-03-24T17:31:44.987Z,59.00
2023-03-24T17:34:21.725Z,58.90
2023-03-24T17:36:50.712Z,58.90
2023-03-24T17:39:19.079Z,58.70
2023-03-24T17:41:45.904Z,58.80
2023-03-24T17:44:12.929Z,58.60
2023-03-24T17:46:39.641Z,58.50
2023-03-24T17:49:06.764Z,58.50
2023-03-24T17:51:33.553Z,58.70
2023-03-24T17:54:00.739Z,59.00
2023-03-24T17:56:27.499Z,59.50
2023-03-24T17:58:55.023Z,59.60
2023-03-24T18:01:22.058Z,59.70
2023-03-24T18:03:49.828Z,59.70
2023-03-24T18:06:17.130Z,59.40
2023-03-24T18:08:44.209Z,59.50
2023-03-24T18:11:15.064Z,59.30
2023-03-24T18:13:42.723Z,59.50
2023-03-24T18:16:20.750Z,59.50
2023-03-24T19:20:34.968Z,59.50
2023-03-24T19:23:02.470Z,60.20
2023-03-24T19:25:29.255Z,60.10
2023-03-24T19:27:56.062Z,59.80
2023-03-24T19:30:22.816Z,59.90
2023-03-24T19:32:49.784Z,60.10
2023-03-24T19:35:16.677Z,60.10
2023-03-24T19:37:43.498Z,60.00
2023-03-24T19:40:15.688Z,60.20
2023-03-24T19:42:44.895Z,59.70
2023-03-24T19:45:14.495Z,59.50
2023-03-24T19:47:41.643Z,59.30
2023-03-24T19:55:06.499Z,58.70
2023-03-24T19:57:33.473Z,57.20
2023-03-24T20:00:00.355Z,57.20
2023-03-24T20:07:23.488Z,57.40
2023-03-24T20:09:50.475Z,57.50
2023-03-24T20:12:17.226Z,57.10
2023-03-24T20:14:44.196Z,56.50
2023-03-24T20:17:18.696Z,56.70
2023-03-24T20:19:47.635Z,56.70
2023-03-24T20:22:15.936Z,56.50
2023-03-24T20:24:44.305Z,56.00
2023-03-24T20:27:11.568Z,56.30
2023-03-24T20:29:40.139Z,56.40
2023-03-24T20:32:10.238Z,56.20
2023-03-24T20:39:33.170Z,55.80
2023-03-24T20:42:00.009Z,56.40
2023-03-24T20:44:27.279Z,56.50
2023-03-24T20:46:57.192Z,56.60
2023-03-24T20:49:25.740Z,56.60
2023-03-24T20:51:52.672Z,56.70
2023-03-24T20:54:19.374Z,56.80
2023-03-24T20:56:46.769Z,56.70
2023-03-24T20:59:13.840Z,56.60
2023-03-24T21:01:41.945Z,56.90
2023-03-24T21:04:10.043Z,57.10
2023-03-24T21:06:38.207Z,57.00
2023-03-24T21:09:05.743Z,57.10
2023-03-24T21:11:33.376Z,56.70
2023-03-24T21:14:01.268Z,56.90
2023-03-24T21:16:28.503Z,56.80
2023-03-24T21:18:56.096Z,56.70
2023-03-24T21:21:22.910Z,56.80
2023-03-24T21:23:52.635Z,57.00
2023-03-24T21:26:19.784Z,57.00
2023-03-24T21:28:46.747Z,57.10
2023-03-24T21:31:27.846Z,57.30
2023-03-24T21:33:59.362Z,57.30
2023-03-24T21:36:30.967Z,57.10
2023-03-24T21:38:59.144Z,57.00
2023-03-24T21:41:25.880Z,57.20
2023-03-24T21:43:54.401Z,57.10
2023-03-24T21:46:25.787Z,57.20
2023-03-24T21:48:55.539Z,57.30
2023-03-24T21:51:30.670Z,57.50
2023-03-24T21:54:04.498Z,57.60
2023-03-24T21:56:32.926Z,57.80
2023-03-24T21:59:00.089Z,57.50
2023-03-24T22:01:27.236Z,57.70
2023-03-24T22:03:54.537Z,57.50
2023-03-24T22:06:22.777Z,57.40
2023-03-24T22:08:49.741Z,57.80
2023-03-24T22:11:18.513Z,57.50
2023-03-24T22:13:46.255Z,57.50
2023-03-24T22:16:14.554Z,57.80
2023-03-24T22:18:43.326Z,56.80
2023-03-24T22:21:10.479Z,56.90
2023-03-24T22:23:40.279Z,57.40
2023-03-24T22:26:13.989Z,57.30
2023-03-24T22:28:42.163Z,56.80
2023-03-24T22:31:11.623Z,57.10
2023-03-24T22:33:38.630Z,57.60
2023-03-24T22:36:06.793Z,57.40
2023-03-24T22:38:34.515Z,57.30
2023-03-24T22:41:07.028Z,57.40
2023-03-24T22:43:35.384Z,57.70
2023-03-24T22:46:02.479Z,58.00
2023-03-24T22:48:29.307Z,57.60
2023-03-24T22:50:56.251Z,58.10
2023-03-24T22:53:23.218Z,57.70
2023-03-24T22:55:50.121Z,57.50
2023-03-24T22:58:18.180Z,57.30
2023-03-24T23:00:47.553Z,57.70
2023-03-24T23:03:14.424Z,57.60
2023-03-24T23:05:42.370Z,57.80
2023-03-24T23:08:09.621Z,57.90
2023-03-24T23:10:36.936Z,57.70
2023-03-24T23:13:04.184Z,58.10
2023-03-24T23:15:31.959Z,58.40
2023-03-24T23:17:59.714Z,58.00
2023-03-24T23:20:29.779Z,58.30
2023-03-24T23:22:57.357Z,58.20
2023-03-24T23:25:24.079Z,58.30
2023-03-24T23:27:50.801Z,58.30
2023-03-24T23:30:18.084Z,58.50
2023-03-24T23:32:46.964Z,58.40
2023-03-24T23:35:14.264Z,58.30
2023-03-24T23:37:41.358Z,58.30
2023-03-24T23:40:12.874Z,58.30
2023-03-24T23:42:41.742Z,58.80
2023-03-24T23:45:10.944Z,58.90
2023-03-24T23:47:37.791Z,58.60
2023-03-24T23:50:06.670Z,58.90
2023-03-24T23:52:34.068Z,59.20
2023-03-24T23:55:04.695Z,59.10
2023-03-24T23:57:31.377Z,59.10
2023-03-24T23:59:59.884Z,59.10
